sensor_id;sensor_type;location;lat;lon;timestamp;P1;durP1;ratioP1;P2;durP2;ratioP2
15553;SDS011;7878;44.632;10.942;2023-12-20T00:01:28;25.87;;;15.27;;
15553;SDS011;7878;44.632;10.942;2023-12-20T00:03:54;36.60;;;17.07;;
15553;SDS011;7878;44.632;10.942;2023-12-20T00:06:20;29.40;;;16.13;;
15553;SDS011;7878;44.632;10.942;2023-12-20T00:08:45;30.77;;;15.93;;
15553;SDS011;7878;44.632;10.942;2023-12-20T00:11:11;29.13;;;16.33;;
15553;SDS011;7878;44.632;10.942;2023-12-20T00:13:37;39.70;;;16.10;;
15553;SDS011;7878;44.632;10.942;2023-12-20T00:16:02;27.70;;;16.10;;
15553;SDS011;7878;44.632;10.942;2023-12-20T00:18:28;30.13;;;17.17;;
15553;SDS011;7878;44.632;10.942;2023-12-20T00:20:54;30.17;;;16.67;;
15553;SDS011;7878;44.632;10.942;2023-12-20T00:23:20;38.83;;;17.93;;
15553;SDS011;7878;44.632;10.942;2023-12-20T00:25:45;28.07;;;16.13;;
15553;SDS011;7878;44.632;10.942;2023-12-20T00:28:12;29.50;;;17.30;;
15553;SDS011;7878;44.632;10.942;2023-12-20T00:30:37;44.93;;;18.60;;
15553;SDS011;7878;44.632;10.942;2023-12-20T00:33:03;35.10;;;18.47;;
15553;SDS011;7878;44.632;10.942;2023-12-20T00:35:29;34.80;;;17.60;;
15553;SDS011;7878;44.632;10.942;2023-12-20T00:37:54;31.47;;;17.93;;
15553;SDS011;7878;44.632;10.942;2023-12-20T00:40:20;34.50;;;18.63;;
15553;SDS011;7878;44.632;10.942;2023-12-20T00:42:47;34.43;;;18.50;;
15553;SDS011;7878;44.632;10.942;2023-12-20T00:45:13;33.60;;;16.73;;
15553;SDS011;7878;44.632;10.942;2023-12-20T00:47:39;28.00;;;16.80;;
15553;SDS011;7878;44.632;10.942;2023-12-20T00:50:05;33.37;;;17.70;;
15553;SDS011;7878;44.632;10.942;2023-12-20T00:52:31;35.17;;;18.00;;
15553;SDS011;7878;44.632;10.942;2023-12-20T00:54:57;32.10;;;17.40;;
15553;SDS011;7878;44.632;10.942;2023-12-20T00:57:23;30.30;;;16.47;;
15553;SDS011;7878;44.632;10.942;2023-12-20T00:59:48;30.33;;;16.93;;
15553;SDS011;7878;44.632;10.942;2023-12-20T01:02:14;26.80;;;15.70;;
15553;SDS011;7878;44.632;10.942;2023-12-20T01:04:40;31.00;;;16.07;;
15553;SDS011;7878;44.632;10.942;2023-12-20T01:07:05;32.33;;;15.87;;
15553;SDS011;7878;44.632;10.942;2023-12-20T01:09:31;24.43;;;15.87;;
15553;SDS011;7878;44.632;10.942;2023-12-20T01:11:57;25.43;;;15.43;;
15553;SDS011;7878;44.632;10.942;2023-12-20T01:14:22;26.07;;;15.50;;
15553;SDS011;7878;44.632;10.942;2023-12-20T01:16:48;25.87;;;15.50;;
15553;SDS011;7878;44.632;10.942;2023-12-20T01:19:14;30.30;;;16.50;;
15553;SDS011;7878;44.632;10.942;2023-12-20T01:21:40;35.13;;;18.70;;
15553;SDS011;7878;44.632;10.942;2023-12-20T01:24:05;26.67;;;15.83;;
15553;SDS011;7878;44.632;10.942;2023-12-20T01:26:31;25.47;;;16.47;;
15553;SDS011;7878;44.632;10.942;2023-12-20T01:28:57;25.50;;;15.97;;
15553;SDS011;7878;44.632;10.942;2023-12-20T01:31:22;26.93;;;16.37;;
15553;SDS011;7878;44.632;10.942;2023-12-20T01:33:48;30.17;;;17.40;;
15553;SDS011;7878;44.632;10.942;2023-12-20T01:36:14;36.03;;;16.23;;
15553;SDS011;7878;44.632;10.942;2023-12-20T01:38:39;28.43;;;17.20;;
15553;SDS011;7878;44.632;10.942;2023-12-20T01:41:05;30.33;;;16.47;;
15553;SDS011;7878;44.632;10.942;2023-12-20T01:43:31;24.97;;;16.00;;
15553;SDS011;7878;44.632;10.942;2023-12-20T01:45:57;29.10;;;15.47;;
15553;SDS011;7878;44.632;10.942;2023-12-20T01:48:23;27.47;;;14.10;;
15553;SDS011;7878;44.632;10.942;2023-12-20T01:50:50;23.97;;;14.50;;
15553;SDS011;7878;44.632;10.942;2023-12-20T01:53:17;25.67;;;14.77;;
15553;SDS011;7878;44.632;10.942;2023-12-20T01:55:45;21.40;;;14.57;;
15553;SDS011;7878;44.632;10.942;2023-12-20T01:58:11;23.00;;;13.90;;
15553;SDS011;7878;44.632;10.942;2023-12-20T02:00:39;23.63;;;13.87;;
15553;SDS011;7878;44.632;10.942;2023-12-20T02:03:05;25.50;;;14.07;;
15553;SDS011;7878;44.632;10.942;2023-12-20T02:05:31;25.60;;;13.80;;
15553;SDS011;7878;44.632;10.942;2023-12-20T02:07:59;22.27;;;13.63;;
15553;SDS011;7878;44.632;10.942;2023-12-20T02:10:24;19.80;;;14.37;;
15553;SDS011;7878;44.632;10.942;2023-12-20T02:12:51;21.73;;;14.43;;
15553;SDS011;7878;44.632;10.942;2023-12-20T02:15:16;23.03;;;14.10;;
15553;SDS011;7878;44.632;10.942;2023-12-20T02:17:42;23.70;;;13.73;;
15553;SDS011;7878;44.632;10.942;2023-12-20T02:20:10;20.93;;;12.13;;
15553;SDS011;7878;44.632;10.942;2023-12-20T02:22:35;22.07;;;13.70;;
15553;SDS011;7878;44.632;10.942;2023-12-20T02:25:01;22.57;;;12.67;;
15553;SDS011;7878;44.632;10.942;2023-12-20T02:27:27;24.30;;;12.40;;
15553;SDS011;7878;44.632;10.942;2023-12-20T02:29:54;20.87;;;13.63;;
15553;SDS011;7878;44.632;10.942;2023-12-20T02:32:20;20.17;;;12.93;;
15553;SDS011;7878;44.632;10.942;2023-12-20T02:34:48;19.03;;;12.47;;
15553;SDS011;7878;44.632;10.942;2023-12-20T02:37:14;17.30;;;11.77;;
15553;SDS011;7878;44.632;10.942;2023-12-20T02:39:39;20.87;;;12.20;;
15553;SDS011;7878;44.632;10.942;2023-12-20T02:42:05;17.03;;;11.53;;
15553;SDS011;7878;44.632;10.942;2023-12-20T02:44:31;19.30;;;12.63;;
15553;SDS011;7878;44.632;10.942;2023-12-20T02:46:56;19.83;;;12.57;;
15553;SDS011;7878;44.632;10.942;2023-12-20T02:49:22;19.73;;;11.77;;
15553;SDS011;7878;44.632;10.942;2023-12-20T02:51:48;18.83;;;11.80;;
15553;SDS011;7878;44.632;10.942;2023-12-20T02:54:13;18.53;;;12.03;;
15553;SDS011;7878;44.632;10.942;2023-12-20T02:56:39;16.60;;;11.20;;
15553;SDS011;7878;44.632;10.942;2023-12-20T02:59:05;20.57;;;11.37;;
15553;SDS011;7878;44.632;10.942;2023-12-20T03:01:31;15.93;;;11.00;;
15553;SDS011;7878;44.632;10.942;2023-12-20T03:03:57;14.20;;;9.80;;
15553;SDS011;7878;44.632;10.942;2023-12-20T03:06:22;15.67;;;10.20;;
15553;SDS011;7878;44.632;10.942;2023-12-20T03:08:49;15.10;;;10.10;;
15553;SDS011;7878;44.632;10.942;2023-12-20T03:11:15;14.33;;;9.60;;
15553;SDS011;7878;44.632;10.942;2023-12-20T03:13:40;13.43;;;9.63;;
15553;SDS011;7878;44.632;10.942;2023-12-20T03:16:09;11.83;;;9.57;;
15553;SDS011;7878;44.632;10.942;2023-12-20T03:18:36;13.33;;;9.37;;
15553;SDS011;7878;44.632;10.942;2023-12-20T03:21:01;13.40;;;9.17;;
15553;SDS011;7878;44.632;10.942;2023-12-20T03:23:28;12.90;;;8.63;;
15553;SDS011;7878;44.632;10.942;2023-12-20T03:25:55;13.73;;;8.47;;
15553;SDS011;7878;44.632;10.942;2023-12-20T03:28:21;15.57;;;9.17;;
15553;SDS011;7878;44.632;10.942;2023-12-20T03:30:48;14.30;;;9.57;;
15553;SDS011;7878;44.632;10.942;2023-12-20T03:33:14;13.07;;;9.30;;
15553;SDS011;7878;44.632;10.942;2023-12-20T03:35:40;13.67;;;9.33;;
15553;SDS011;7878;44.632;10.942;2023-12-20T03:38:05;13.23;;;8.43;;
15553;SDS011;7878;44.632;10.942;2023-12-20T03:40:32;13.60;;;8.47;;
15553;SDS011;7878;44.632;10.942;2023-12-20T03:42:57;14.07;;;9.43;;
15553;SDS011;7878;44.632;10.942;2023-12-20T03:45:23;12.53;;;8.83;;
15553;SDS011;7878;44.632;10.942;2023-12-20T03:47:49;14.03;;;8.50;;
15553;SDS011;7878;44.632;10.942;2023-12-20T03:50:15;11.63;;;8.40;;
15553;SDS011;7878;44.632;10.942;2023-12-20T03:52:40;12.70;;;8.10;;
15553;SDS011;7878;44.632;10.942;2023-12-20T03:55:06;13.63;;;8.30;;
15553;SDS011;7878;44.632;10.942;2023-12-20T03:57:32;13.13;;;8.27;;
15553;SDS011;7878;44.632;10.942;2023-12-20T03:59:57;10.67;;;6.93;;
15553;SDS011;7878;44.632;10.942;2023-12-20T04:02:23;10.00;;;7.20;;
15553;SDS011;7878;44.632;10.942;2023-12-20T04:04:49;12.37;;;6.63;;
15553;SDS011;7878;44.632;10.942;2023-12-20T04:07:15;10.17;;;6.97;;
15553;SDS011;7878;44.632;10.942;2023-12-20T04:09:40;9.43;;;6.93;;
15553;SDS011;7878;44.632;10.942;2023-12-20T04:12:06;9.93;;;7.17;;
15553;SDS011;7878;44.632;10.942;2023-12-20T04:14:32;13.07;;;7.03;;
15553;SDS011;7878;44.632;10.942;2023-12-20T04:16:58;12.27;;;8.00;;
15553;SDS011;7878;44.632;10.942;2023-12-20T04:19:24;9.20;;;6.27;;
15553;SDS011;7878;44.632;10.942;2023-12-20T04:21:49;11.30;;;6.63;;
15553;SDS011;7878;44.632;10.942;2023-12-20T04:24:15;8.13;;;5.77;;
15553;SDS011;7878;44.632;10.942;2023-12-20T04:26:41;9.87;;;5.73;;
15553;SDS011;7878;44.632;10.942;2023-12-20T04:29:06;9.73;;;5.83;;
15553;SDS011;7878;44.632;10.942;2023-12-20T04:31:32;10.60;;;6.13;;
15553;SDS011;7878;44.632;10.942;2023-12-20T04:33:58;15.33;;;5.97;;
15553;SDS011;7878;44.632;10.942;2023-12-20T04:36:23;15.00;;;6.27;;
15553;SDS011;7878;44.632;10.942;2023-12-20T04:38:51;13.77;;;7.13;;
15553;SDS011;7878;44.632;10.942;2023-12-20T04:41:18;11.07;;;6.03;;
15553;SDS011;7878;44.632;10.942;2023-12-20T04:43:44;8.93;;;6.13;;
15553;SDS011;7878;44.632;10.942;2023-12-20T04:46:09;8.80;;;5.63;;
15553;SDS011;7878;44.632;10.942;2023-12-20T04:48:35;10.17;;;5.77;;
15553;SDS011;7878;44.632;10.942;2023-12-20T04:51:01;15.40;;;6.13;;
15553;SDS011;7878;44.632;10.942;2023-12-20T04:53:27;11.40;;;5.90;;
15553;SDS011;7878;44.632;10.942;2023-12-20T04:55:53;8.23;;;5.17;;
15553;SDS011;7878;44.632;10.942;2023-12-20T04:58:18;8.83;;;5.60;;
15553;SDS011;7878;44.632;10.942;2023-12-20T05:00:44;11.33;;;5.87;;
15553;SDS011;7878;44.632;10.942;2023-12-20T05:03:10;14.23;;;6.97;;
15553;SDS011;7878;44.632;10.942;2023-12-20T05:05:35;10.17;;;6.27;;
15553;SDS011;7878;44.632;10.942;2023-12-20T05:08:01;10.23;;;6.20;;
15553;SDS011;7878;44.632;10.942;2023-12-20T05:10:27;11.33;;;6.13;;
15553;SDS011;7878;44.632;10.942;2023-12-20T05:12:53;9.30;;;6.00;;
15553;SDS011;7878;44.632;10.942;2023-12-20T05:15:18;12.93;;;6.30;;
15553;SDS011;7878;44.632;10.942;2023-12-20T05:17:44;13.57;;;6.23;;
15553;SDS011;7878;44.632;10.942;2023-12-20T05:20:10;8.67;;;5.67;;
15553;SDS011;7878;44.632;10.942;2023-12-20T05:22:36;16.60;;;5.80;;
15553;SDS011;7878;44.632;10.942;2023-12-20T05:25:01;16.13;;;6.63;;
15553;SDS011;7878;44.632;10.942;2023-12-20T05:27:27;12.30;;;6.57;;
15553;SDS011;7878;44.632;10.942;2023-12-20T05:29:53;9.23;;;5.87;;
15553;SDS011;7878;44.632;10.942;2023-12-20T05:32:22;12.37;;;6.43;;
15553;SDS011;7878;44.632;10.942;2023-12-20T05:34:48;9.77;;;6.03;;
15553;SDS011;7878;44.632;10.942;2023-12-20T05:37:14;11.30;;;5.90;;
15553;SDS011;7878;44.632;10.942;2023-12-20T05:39:40;8.43;;;6.00;;
15553;SDS011;7878;44.632;10.942;2023-12-20T05:42:05;13.43;;;6.80;;
15553;SDS011;7878;44.632;10.942;2023-12-20T05:44:31;12.77;;;6.77;;
15553;SDS011;7878;44.632;10.942;2023-12-20T05:46:57;10.77;;;6.73;;
15553;SDS011;7878;44.632;10.942;2023-12-20T05:49:22;11.97;;;6.40;;
15553;SDS011;7878;44.632;10.942;2023-12-20T05:51:48;10.70;;;6.47;;
15553;SDS011;7878;44.632;10.942;2023-12-20T05:54:15;10.93;;;6.57;;
15553;SDS011;7878;44.632;10.942;2023-12-20T05:56:41;9.70;;;7.10;;
15553;SDS011;7878;44.632;10.942;2023-12-20T05:59:06;8.23;;;5.97;;
15553;SDS011;7878;44.632;10.942;2023-12-20T06:01:32;11.03;;;7.47;;
15553;SDS011;7878;44.632;10.942;2023-12-20T06:03:57;11.70;;;6.83;;
15553;SDS011;7878;44.632;10.942;2023-12-20T06:06:23;13.37;;;6.90;;
15553;SDS011;7878;44.632;10.942;2023-12-20T06:08:49;15.37;;;8.50;;
15553;SDS011;7878;44.632;10.942;2023-12-20T06:11:15;16.73;;;9.13;;
15553;SDS011;7878;44.632;10.942;2023-12-20T06:13:40;16.20;;;8.80;;
15553;SDS011;7878;44.632;10.942;2023-12-20T06:16:06;22.87;;;10.10;;
15553;SDS011;7878;44.632;10.942;2023-12-20T06:18:32;16.17;;;8.87;;
15553;SDS011;7878;44.632;10.942;2023-12-20T06:20:58;16.10;;;8.77;;
15553;SDS011;7878;44.632;10.942;2023-12-20T06:23:23;12.50;;;7.23;;
15553;SDS011;7878;44.632;10.942;2023-12-20T06:25:49;15.73;;;6.47;;
15553;SDS011;7878;44.632;10.942;2023-12-20T06:28:15;10.37;;;6.60;;
15553;SDS011;7878;44.632;10.942;2023-12-20T06:30:40;15.20;;;5.80;;
15553;SDS011;7878;44.632;10.942;2023-12-20T06:33:06;8.37;;;5.73;;
15553;SDS011;7878;44.632;10.942;2023-12-20T06:35:32;16.80;;;6.80;;
15553;SDS011;7878;44.632;10.942;2023-12-20T06:37:58;11.57;;;6.20;;
15553;SDS011;7878;44.632;10.942;2023-12-20T06:40:23;14.93;;;6.03;;
15553;SDS011;7878;44.632;10.942;2023-12-20T06:42:49;10.87;;;7.00;;
15553;SDS011;7878;44.632;10.942;2023-12-20T06:45:15;8.80;;;5.40;;
15553;SDS011;7878;44.632;10.942;2023-12-20T06:47:40;8.10;;;5.50;;
15553;SDS011;7878;44.632;10.942;2023-12-20T06:50:06;13.83;;;5.30;;
15553;SDS011;7878;44.632;10.942;2023-12-20T06:52:33;9.87;;;5.43;;
15553;SDS011;7878;44.632;10.942;2023-12-20T06:55:00;14.03;;;5.07;;
15553;SDS011;7878;44.632;10.942;2023-12-20T06:57:26;10.70;;;5.77;;
15553;SDS011;7878;44.632;10.942;2023-12-20T06:59:52;7.90;;;5.10;;
15553;SDS011;7878;44.632;10.942;2023-12-20T07:02:18;11.47;;;5.73;;
15553;SDS011;7878;44.632;10.942;2023-12-20T07:04:44;9.53;;;5.60;;
15553;SDS011;7878;44.632;10.942;2023-12-20T07:07:10;13.40;;;6.07;;
15553;SDS011;7878;44.632;10.942;2023-12-20T07:09:36;11.27;;;5.43;;
15553;SDS011;7878;44.632;10.942;2023-12-20T07:12:03;11.63;;;6.33;;
15553;SDS011;7878;44.632;10.942;2023-12-20T07:14:29;11.50;;;5.57;;
15553;SDS011;7878;44.632;10.942;2023-12-20T07:16:54;8.30;;;5.03;;
15553;SDS011;7878;44.632;10.942;2023-12-20T07:19:21;9.97;;;5.27;;
15553;SDS011;7878;44.632;10.942;2023-12-20T07:21:47;9.83;;;5.57;;
15553;SDS011;7878;44.632;10.942;2023-12-20T07:24:12;11.10;;;5.33;;
15553;SDS011;7878;44.632;10.942;2023-12-20T07:26:38;12.57;;;5.37;;
15553;SDS011;7878;44.632;10.942;2023-12-20T07:29:05;11.93;;;5.60;;
15553;SDS011;7878;44.632;10.942;2023-12-20T07:31:31;9.30;;;5.10;;
15553;SDS011;7878;44.632;10.942;2023-12-20T07:33:57;13.40;;;5.70;;
15553;SDS011;7878;44.632;10.942;2023-12-20T07:36:23;15.13;;;6.33;;
15553;SDS011;7878;44.632;10.942;2023-12-20T07:38:49;13.53;;;5.50;;
15553;SDS011;7878;44.632;10.942;2023-12-20T07:41:14;14.63;;;5.73;;
15553;SDS011;7878;44.632;10.942;2023-12-20T07:43:46;12.40;;;7.27;;
15553;SDS011;7878;44.632;10.942;2023-12-20T07:46:11;11.23;;;5.83;;
15553;SDS011;7878;44.632;10.942;2023-12-20T07:48:37;12.03;;;5.93;;
15553;SDS011;7878;44.632;10.942;2023-12-20T07:51:04;17.90;;;5.70;;
15553;SDS011;7878;44.632;10.942;2023-12-20T07:53:34;14.60;;;5.80;;
15553;SDS011;7878;44.632;10.942;2023-12-20T07:56:00;10.20;;;6.17;;
15553;SDS011;7878;44.632;10.942;2023-12-20T07:58:26;24.97;;;6.40;;
15553;SDS011;7878;44.632;10.942;2023-12-20T08:00:51;18.33;;;6.90;;
15553;SDS011;7878;44.632;10.942;2023-12-20T08:03:17;19.87;;;7.10;;
15553;SDS011;7878;44.632;10.942;2023-12-20T08:05:43;12.27;;;6.20;;
15553;SDS011;7878;44.632;10.942;2023-12-20T08:08:08;16.53;;;7.50;;
15553;SDS011;7878;44.632;10.942;2023-12-20T08:10:34;16.37;;;6.20;;
15553;SDS011;7878;44.632;10.942;2023-12-20T08:13:00;19.33;;;7.90;;
15553;SDS011;7878;44.632;10.942;2023-12-20T08:15:26;17.10;;;7.80;;
15553;SDS011;7878;44.632;10.942;2023-12-20T08:17:51;13.27;;;7.67;;
15553;SDS011;7878;44.632;10.942;2023-12-20T08:20:18;15.97;;;7.73;;
15553;SDS011;7878;44.632;10.942;2023-12-20T08:22:43;13.60;;;7.80;;
15553;SDS011;7878;44.632;10.942;2023-12-20T08:25:09;21.07;;;8.50;;
15553;SDS011;7878;44.632;10.942;2023-12-20T08:27:41;19.17;;;9.57;;
15553;SDS011;7878;44.632;10.942;2023-12-20T08:30:10;15.10;;;8.90;;
15553;SDS011;7878;44.632;10.942;2023-12-20T08:32:36;17.70;;;8.90;;
15553;SDS011;7878;44.632;10.942;2023-12-20T08:35:01;25.17;;;10.47;;
15553;SDS011;7878;44.632;10.942;2023-12-20T08:37:27;18.37;;;9.37;;
15553;SDS011;7878;44.632;10.942;2023-12-20T08:39:54;13.57;;;8.87;;
15553;SDS011;7878;44.632;10.942;2023-12-20T08:42:20;16.97;;;9.30;;
15553;SDS011;7878;44.632;10.942;2023-12-20T08:44:46;24.40;;;8.90;;
15553;SDS011;7878;44.632;10.942;2023-12-20T08:47:12;16.17;;;8.67;;
15553;SDS011;7878;44.632;10.942;2023-12-20T08:49:40;16.53;;;8.80;;
15553;SDS011;7878;44.632;10.942;2023-12-20T08:52:06;17.93;;;9.13;;
15553;SDS011;7878;44.632;10.942;2023-12-20T08:54:32;12.93;;;9.20;;
15553;SDS011;7878;44.632;10.942;2023-12-20T08:56:58;15.53;;;8.27;;
15553;SDS011;7878;44.632;10.942;2023-12-20T08:59:23;14.10;;;7.70;;
15553;SDS011;7878;44.632;10.942;2023-12-20T09:01:49;18.23;;;9.10;;
15553;SDS011;7878;44.632;10.942;2023-12-20T09:04:19;15.13;;;8.10;;
15553;SDS011;7878;44.632;10.942;2023-12-20T09:06:45;16.47;;;7.57;;
15553;SDS011;7878;44.632;10.942;2023-12-20T09:09:11;20.10;;;8.53;;
15553;SDS011;7878;44.632;10.942;2023-12-20T09:11:38;16.93;;;7.60;;
15553;SDS011;7878;44.632;10.942;2023-12-20T09:14:04;20.27;;;7.23;;
15553;SDS011;7878;44.632;10.942;2023-12-20T09:16:30;13.10;;;7.00;;
15553;SDS011;7878;44.632;10.942;2023-12-20T09:18:56;12.00;;;7.33;;
15553;SDS011;7878;44.632;10.942;2023-12-20T09:21:22;9.03;;;6.50;;
15553;SDS011;7878;44.632;10.942;2023-12-20T09:23:48;15.67;;;7.07;;
15553;SDS011;7878;44.632;10.942;2023-12-20T09:26:13;17.80;;;7.83;;
15553;SDS011;7878;44.632;10.942;2023-12-20T09:28:39;9.73;;;6.17;;
15553;SDS011;7878;44.632;10.942;2023-12-20T09:31:05;15.30;;;8.17;;
15553;SDS011;7878;44.632;10.942;2023-12-20T09:33:32;13.00;;;6.83;;
15553;SDS011;7878;44.632;10.942;2023-12-20T09:35:58;15.13;;;7.43;;
15553;SDS011;7878;44.632;10.942;2023-12-20T09:38:24;18.37;;;8.20;;
15553;SDS011;7878;44.632;10.942;2023-12-20T09:40:50;14.67;;;7.33;;
15553;SDS011;7878;44.632;10.942;2023-12-20T09:43:17;17.97;;;7.83;;
15553;SDS011;7878;44.632;10.942;2023-12-20T09:45:47;12.53;;;8.60;;
15553;SDS011;7878;44.632;10.942;2023-12-20T09:48:13;20.20;;;8.40;;
15553;SDS011;7878;44.632;10.942;2023-12-20T09:50:43;20.60;;;8.47;;
15553;SDS011;7878;44.632;10.942;2023-12-20T09:53:09;19.03;;;8.70;;
15553;SDS011;7878;44.632;10.942;2023-12-20T09:55:37;27.07;;;9.00;;
15553;SDS011;7878;44.632;10.942;2023-12-20T09:58:04;20.13;;;8.30;;
15553;SDS011;7878;44.632;10.942;2023-12-20T10:00:31;21.67;;;7.90;;
15553;SDS011;7878;44.632;10.942;2023-12-20T10:02:57;25.53;;;8.83;;
15553;SDS011;7878;44.632;10.942;2023-12-20T10:05:28;20.10;;;9.70;;
15553;SDS011;7878;44.632;10.942;2023-12-20T10:07:55;21.80;;;8.60;;
15553;SDS011;7878;44.632;10.942;2023-12-20T10:10:21;19.47;;;9.60;;
15553;SDS011;7878;44.632;10.942;2023-12-20T10:13:06;20.83;;;10.10;;
15553;SDS011;7878;44.632;10.942;2023-12-20T10:15:35;16.23;;;9.40;;
15553;SDS011;7878;44.632;10.942;2023-12-20T10:18:01;20.13;;;10.57;;
15553;SDS011;7878;44.632;10.942;2023-12-20T10:20:28;12.83;;;9.13;;
15553;SDS011;7878;44.632;10.942;2023-12-20T10:22:55;18.33;;;10.10;;
15553;SDS011;7878;44.632;10.942;2023-12-20T10:25:21;24.43;;;10.53;;
15553;SDS011;7878;44.632;10.942;2023-12-20T10:27:47;16.03;;;10.40;;
15553;SDS011;7878;44.632;10.942;2023-12-20T10:30:14;21.30;;;10.87;;
15553;SDS011;7878;44.632;10.942;2023-12-20T10:32:40;19.13;;;10.80;;
15553;SDS011;7878;44.632;10.942;2023-12-20T10:35:05;26.40;;;10.47;;
15553;SDS011;7878;44.632;10.942;2023-12-20T10:37:35;32.17;;;10.57;;
15553;SDS011;7878;44.632;10.942;2023-12-20T10:40:04;16.07;;;10.63;;
15553;SDS011;7878;44.632;10.942;2023-12-20T10:42:31;21.23;;;10.63;;
15553;SDS011;7878;44.632;10.942;2023-12-20T10:44:59;19.23;;;11.33;;
15553;SDS011;7878;44.632;10.942;2023-12-20T10:47:25;18.97;;;10.67;;
15553;SDS011;7878;44.632;10.942;2023-12-20T10:49:54;18.50;;;11.37;;
15553;SDS011;7878;44.632;10.942;2023-12-20T10:52:22;27.53;;;10.87;;
15553;SDS011;7878;44.632;10.942;2023-12-20T10:54:49;26.37;;;12.10;;
15553;SDS011;7878;44.632;10.942;2023-12-20T10:57:15;19.50;;;11.37;;
15553;SDS011;7878;44.632;10.942;2023-12-20T10:59:43;19.00;;;12.50;;
15553;SDS011;7878;44.632;10.942;2023-12-20T11:02:12;18.43;;;12.23;;
15553;SDS011;7878;44.632;10.942;2023-12-20T11:04:47;32.47;;;14.27;;
15553;SDS011;7878;44.632;10.942;2023-12-20T11:07:30;25.53;;;13.30;;
15553;SDS011;7878;44.632;10.942;2023-12-20T11:10:03;25.33;;;13.83;;
15553;SDS011;7878;44.632;10.942;2023-12-20T11:12:54;24.03;;;12.83;;
15553;SDS011;7878;44.632;10.942;2023-12-20T11:15:25;26.00;;;13.93;;
15553;SDS011;7878;44.632;10.942;2023-12-20T11:17:55;30.37;;;13.97;;
15553;SDS011;7878;44.632;10.942;2023-12-20T11:20:24;24.80;;;13.93;;
15553;SDS011;7878;44.632;10.942;2023-12-20T11:23:03;22.10;;;13.70;;
15553;SDS011;7878;44.632;10.942;2023-12-20T11:25:30;18.87;;;12.70;;
15553;SDS011;7878;44.632;10.942;2023-12-20T11:28:22;23.07;;;14.13;;
15553;SDS011;7878;44.632;10.942;2023-12-20T11:33:21;24.10;;;12.90;;
15553;SDS011;7878;44.632;10.942;2023-12-20T11:35:48;19.57;;;12.27;;
15553;SDS011;7878;44.632;10.942;2023-12-20T11:38:14;22.13;;;13.17;;
15553;SDS011;7878;44.632;10.942;2023-12-20T11:40:43;19.17;;;13.30;;
15553;SDS011;7878;44.632;10.942;2023-12-20T11:43:09;21.70;;;13.20;;
15553;SDS011;7878;44.632;10.942;2023-12-20T11:45:35;26.97;;;13.57;;
15553;SDS011;7878;44.632;10.942;2023-12-20T11:48:04;23.03;;;13.70;;
15553;SDS011;7878;44.632;10.942;2023-12-20T11:50:31;23.67;;;13.20;;
15553;SDS011;7878;44.632;10.942;2023-12-20T11:52:57;31.77;;;14.37;;
15553;SDS011;7878;44.632;10.942;2023-12-20T11:55:23;23.60;;;13.87;;
15553;SDS011;7878;44.632;10.942;2023-12-20T11:57:49;21.50;;;14.40;;
15553;SDS011;7878;44.632;10.942;2023-12-20T12:00:15;28.60;;;15.07;;
15553;SDS011;7878;44.632;10.942;2023-12-20T12:02:42;22.77;;;14.17;;
15553;SDS011;7878;44.632;10.942;2023-12-20T12:05:08;25.33;;;15.40;;
15553;SDS011;7878;44.632;10.942;2023-12-20T12:07:34;31.13;;;14.40;;
15553;SDS011;7878;44.632;10.942;2023-12-20T12:10:00;23.00;;;15.47;;
15553;SDS011;7878;44.632;10.942;2023-12-20T12:12:26;29.20;;;15.80;;
15553;SDS011;7878;44.632;10.942;2023-12-20T12:14:53;25.53;;;15.13;;
15553;SDS011;7878;44.632;10.942;2023-12-20T12:17:21;30.40;;;15.00;;
15553;SDS011;7878;44.632;10.942;2023-12-20T12:19:47;27.43;;;15.00;;
15553;SDS011;7878;44.632;10.942;2023-12-20T12:22:13;22.50;;;15.30;;
15553;SDS011;7878;44.632;10.942;2023-12-20T12:24:41;29.13;;;13.97;;
15553;SDS011;7878;44.632;10.942;2023-12-20T12:27:08;22.33;;;14.13;;
15553;SDS011;7878;44.632;10.942;2023-12-20T12:29:35;23.70;;;15.13;;
15553;SDS011;7878;44.632;10.942;2023-12-20T12:32:04;21.40;;;14.97;;
15553;SDS011;7878;44.632;10.942;2023-12-20T12:34:32;29.20;;;18.57;;
15553;SDS011;7878;44.632;10.942;2023-12-20T12:36:59;25.27;;;15.37;;
15553;SDS011;7878;44.632;10.942;2023-12-20T12:39:25;27.10;;;17.17;;
15553;SDS011;7878;44.632;10.942;2023-12-20T12:41:50;31.40;;;17.70;;
15553;SDS011;7878;44.632;10.942;2023-12-20T12:44:17;22.40;;;14.70;;
15553;SDS011;7878;44.632;10.942;2023-12-20T12:46:43;23.13;;;15.07;;
15553;SDS011;7878;44.632;10.942;2023-12-20T12:49:12;21.47;;;14.73;;
15553;SDS011;7878;44.632;10.942;2023-12-20T12:51:38;28.17;;;16.53;;
15553;SDS011;7878;44.632;10.942;2023-12-20T12:54:03;21.30;;;15.07;;
15553;SDS011;7878;44.632;10.942;2023-12-20T12:56:29;29.27;;;15.80;;
15553;SDS011;7878;44.632;10.942;2023-12-20T12:58:55;30.53;;;14.83;;
15553;SDS011;7878;44.632;10.942;2023-12-20T13:01:21;25.70;;;14.60;;
15553;SDS011;7878;44.632;10.942;2023-12-20T13:03:47;28.20;;;15.53;;
15553;SDS011;7878;44.632;10.942;2023-12-20T13:06:12;31.60;;;16.07;;
15553;SDS011;7878;44.632;10.942;2023-12-20T13:08:38;30.10;;;15.47;;
15553;SDS011;7878;44.632;10.942;2023-12-20T13:11:04;33.00;;;19.80;;
15553;SDS011;7878;44.632;10.942;2023-12-20T13:13:30;24.43;;;15.30;;
15553;SDS011;7878;44.632;10.942;2023-12-20T13:15:56;31.33;;;15.87;;
15553;SDS011;7878;44.632;10.942;2023-12-20T13:18:22;28.27;;;15.53;;
15553;SDS011;7878;44.632;10.942;2023-12-20T13:20:48;26.27;;;15.00;;
15553;SDS011;7878;44.632;10.942;2023-12-20T13:23:15;26.83;;;16.30;;
15553;SDS011;7878;44.632;10.942;2023-12-20T13:25:43;26.10;;;15.50;;
15553;SDS011;7878;44.632;10.942;2023-12-20T13:28:12;24.70;;;15.63;;
15553;SDS011;7878;44.632;10.942;2023-12-20T13:30:39;25.33;;;15.40;;
15553;SDS011;7878;44.632;10.942;2023-12-20T13:33:05;23.13;;;14.63;;
15553;SDS011;7878;44.632;10.942;2023-12-20T13:35:31;24.90;;;14.80;;
15553;SDS011;7878;44.632;10.942;2023-12-20T13:37:58;33.53;;;15.73;;
15553;SDS011;7878;44.632;10.942;2023-12-20T13:40:24;31.97;;;17.47;;
15553;SDS011;7878;44.632;10.942;2023-12-20T13:42:49;32.27;;;17.93;;
15553;SDS011;7878;44.632;10.942;2023-12-20T13:45:15;29.03;;;16.50;;
15553;SDS011;7878;44.632;10.942;2023-12-20T13:47:41;34.13;;;19.37;;
15553;SDS011;7878;44.632;10.942;2023-12-20T13:50:07;26.00;;;16.13;;
15553;SDS011;7878;44.632;10.942;2023-12-20T13:52:33;28.37;;;15.37;;
15553;SDS011;7878;44.632;10.942;2023-12-20T13:54:59;27.43;;;15.63;;
15553;SDS011;7878;44.632;10.942;2023-12-20T13:57:24;22.90;;;14.93;;
15553;SDS011;7878;44.632;10.942;2023-12-20T13:59:50;26.90;;;15.17;;
15553;SDS011;7878;44.632;10.942;2023-12-20T14:02:16;24.60;;;14.57;;
15553;SDS011;7878;44.632;10.942;2023-12-20T14:04:41;27.40;;;15.10;;
15553;SDS011;7878;44.632;10.942;2023-12-20T14:07:07;25.47;;;15.70;;
15553;SDS011;7878;44.632;10.942;2023-12-20T14:09:34;30.67;;;16.00;;
15553;SDS011;7878;44.632;10.942;2023-12-20T14:12:00;27.80;;;16.10;;
15553;SDS011;7878;44.632;10.942;2023-12-20T14:14:26;24.83;;;18.40;;
15553;SDS011;7878;44.632;10.942;2023-12-20T14:16:51;25.57;;;17.30;;
15553;SDS011;7878;44.632;10.942;2023-12-20T14:19:17;25.33;;;16.00;;
15553;SDS011;7878;44.632;10.942;2023-12-20T14:21:43;29.03;;;16.43;;
15553;SDS011;7878;44.632;10.942;2023-12-20T14:24:11;32.13;;;16.80;;
15553;SDS011;7878;44.632;10.942;2023-12-20T14:26:39;33.53;;;17.10;;